createdAt,value
2018-08-17T00:37:28.496Z,27.2
2018-08-17T00:38:18.260Z,27.2
2018-08-17T00:39:08.352Z,27.3
2018-08-17T00:39:58.101Z,27.2
2018-08-17T00:40:48.200Z,27.2
2018-08-17T00:41:38.820Z,27.2
2018-08-17T00:42:28.626Z,27.2
2018-08-17T00:43:18.643Z,27.2
2018-08-17T00:44:08.704Z,27.2
2018-08-17T00:44:58.793Z,27.2
2018-08-17T00:45:48.828Z,27.2
2018-08-17T00:46:38.889Z,27.2
2018-08-17T00:47:29.247Z,27.2
2018-08-17T00:48:18.483Z,27.2
2018-08-17T00:49:08.619Z,27.2
2018-08-17T00:49:58.600Z,27.2
2018-08-17T00:50:49.232Z,27.2
2018-08-17T00:51:39.314Z,27.2
2018-08-17T00:52:29.375Z,27.2
2018-08-17T00:53:19.539Z,27.2
2018-08-17T00:54:09.499Z,27.2
2018-08-17T00:54:59.553Z,27.2
2018-08-17T00:55:49.368Z,27.2
2018-08-17T00:56:39.692Z,27.2
2018-08-17T00:57:30.069Z,27.2
2018-08-17T00:58:20.105Z,27.2
2018-08-17T00:59:09.929Z,27.2
2018-08-17T00:59:59.659Z,27.2
2018-08-17T01:00:49.987Z,27.1
2018-08-17T01:01:40.052Z,27.1
2018-08-17T01:02:29.842Z,27.2
2018-08-17T01:03:20.196Z,27.2
2018-08-17T01:04:10.559Z,27.1
2018-08-17T01:05:00.577Z,27.1
2018-08-17T01:05:50.628Z,27.1
2018-08-17T01:06:40.171Z,27.1
2018-08-17T01:07:30.489Z,27.1
2018-08-17T01:08:20.845Z,27.1
2018-08-17T01:09:10.915Z,27.1
2018-08-17T01:10:00.698Z,27.1
2018-08-17T01:10:51.051Z,27.1
2018-08-17T01:11:40.649Z,27.1
2018-08-17T01:12:30.613Z,27.1
2018-08-17T01:13:21.251Z,27.1
2018-08-17T01:14:11.298Z,27.1
2018-08-17T01:15:01.366Z,27.1
2018-08-17T01:15:50.861Z,27.1
2018-08-17T01:16:41.208Z,27.1
2018-08-17T01:17:31.556Z,27.1
2018-08-17T01:18:21.119Z,27.1
2018-08-17T01:19:11.673Z,27.1
2018-08-17T01:20:01.747Z,27.1
2018-08-17T01:20:51.829Z,27.1
2018-08-17T01:21:41.879Z,27.1
2018-08-17T01:22:31.979Z,27.1
2018-08-17T01:23:22.007Z,27.1
2018-08-17T01:24:11.809Z,27.1
2018-08-17T01:25:02.199Z,27.1
2018-08-17T01:25:52.224Z,27.1
2018-08-17T01:26:41.771Z,27.1
2018-08-17T01:27:32.057Z,27.1
2018-08-17T01:28:22.140Z,27.1
2018-08-17T01:29:12.241Z,27.1
2018-08-17T01:30:02.527Z,27.1
2018-08-17T01:30:52.397Z,27.1
2018-08-17T01:31:42.662Z,27.1
2018-08-17T01:32:31.907Z,27.1
2018-08-17T01:33:22.813Z,27.1
2018-08-17T01:34:12.075Z,27.1
2018-08-17T01:35:02.665Z,27.1
2018-08-17T01:35:52.447Z,27.1
2018-08-17T01:36:42.777Z,27.1
2018-08-17T01:37:33.142Z,27.1
2018-08-17T01:38:23.179Z,27.1
2018-08-17T01:39:13.252Z,27.1
2018-08-17T01:40:03.297Z,27.1
2018-08-17T01:40:53.107Z,27.1
2018-08-17T01:41:43.419Z,27.1
2018-08-17T01:42:33.236Z,27.1
2018-08-17T01:43:23.587Z,27.1
2018-08-17T01:44:13.374Z,27.1
2018-08-17T01:45:02.983Z,27.1
2018-08-17T01:45:53.480Z,27.1
2018-08-17T01:46:43.288Z,27.1
2018-08-17T01:47:33.338Z,27.1
2018-08-17T01:48:23.416Z,27.1
2018-08-17T01:49:14.001Z,27.1
2018-08-17T01:50:03.818Z,27.1
2018-08-17T01:50:54.163Z,27.1
2018-08-17T01:51:43.988Z,27.1
2018-08-17T01:52:34.293Z,27.1
2018-08-17T01:53:23.831Z,27.1
2018-08-17T01:54:14.398Z,27.1
2018-08-17T01:55:04.461Z,27.1
2018-08-17T01:55:54.518Z,27.1
2018-08-17T01:56:44.043Z,27.1
2018-08-17T01:57:33.835Z,27.1
2018-08-17T01:58:23.904Z,27.1
2018-08-17T01:59:14.553Z,27.1
2018-08-17T02:00:04.592Z,27.1
2018-08-17T02:00:54.656Z,27
2018-08-17T02:01:45.033Z,27.1
2018-08-17T02:02:34.217Z,27.1
2018-08-17T02:03:24.602Z,27
2018-08-17T02:04:15.272Z,27
2018-08-17T02:05:04.981Z,27.1
2018-08-17T02:05:55.317Z,27.1
2018-08-17T02:06:44.837Z,27.1
2018-08-17T02:07:34.915Z,27
2018-08-17T02:08:25.516Z,27.1
2018-08-17T02:09:15.328Z,27.1
2018-08-17T02:10:05.359Z,27.1
2018-08-17T02:10:55.162Z,27
2018-08-17T02:11:45.484Z,27
2018-08-17T02:12:35.299Z,27
2018-08-17T02:13:25.625Z,27
2018-08-17T02:14:15.124Z,27.1
2018-08-17T02:15:05.486Z,27.1
2018-08-17T02:15:55.805Z,27
2018-08-17T02:16:45.590Z,27
2018-08-17T02:17:35.943Z,27
2018-08-17T02:18:25.461Z,27
2018-08-17T02:19:15.769Z,27
2018-08-17T02:20:06.159Z,27
2018-08-17T02:20:56.472Z,27
2018-08-17T02:21:46.248Z,27
2018-08-17T02:22:36.588Z,27
2018-08-17T02:23:26.375Z,27
2018-08-17T02:24:16.573Z,27
2018-08-17T02:25:06.257Z,27
2018-08-17T02:25:56.576Z,27
2018-08-17T02:26:46.916Z,27
2018-08-17T02:27:36.995Z,27
2018-08-17T02:28:27.059Z,27
2018-08-17T02:29:16.577Z,27
2018-08-17T02:30:06.366Z,27
2018-08-17T02:30:57.011Z,27
2018-08-17T02:31:46.741Z,27
2018-08-17T02:32:37.125Z,27
2018-08-17T02:33:27.211Z,27
2018-08-17T02:34:17.240Z,27
2018-08-17T02:35:07.602Z,27
2018-08-17T02:35:57.653Z,27
2018-08-17T02:36:47.713Z,27
2018-08-17T02:37:37.529Z,26.9
2018-08-17T02:38:27.910Z,27
2018-08-17T02:39:17.991Z,27
2018-08-17T02:40:07.703Z,27
2018-08-17T02:40:57.830Z,26.9
2018-08-17T02:41:47.815Z,27
2018-08-17T02:42:37.601Z,27
2018-08-17T02:43:28.251Z,26.9
2018-08-17T02:44:18.029Z,26.9
2018-08-17T02:45:08.076Z,27
2018-08-17T02:45:58.172Z,26.9
2018-08-17T02:46:48.495Z,26.9
2018-08-17T02:47:38.015Z,26.9
2018-08-17T02:48:28.628Z,26.9
2018-08-17T02:49:18.711Z,27
2018-08-17T02:50:08.178Z,26.9
2018-08-17T02:50:58.558Z,26.9
2018-08-17T02:51:48.589Z,26.9
2018-08-17T02:52:38.704Z,26.9
2018-08-17T02:53:28.992Z,26.9
2018-08-17T02:54:19.051Z,26.9
2018-08-17T02:55:08.683Z,26.9
2018-08-17T02:55:58.951Z,26.9
2018-08-17T02:56:49.011Z,26.9
2018-08-17T02:57:38.794Z,26.9
2018-08-17T02:58:29.131Z,26.9
2018-08-17T02:59:19.529Z,26.9
2018-08-17T03:00:09.008Z,26.9
2018-08-17T03:00:59.311Z,26.9
2018-08-17T03:01:49.637Z,26.9
2018-08-17T03:02:38.870Z,26.9
2018-08-17T03:03:29.519Z,26.9
2018-08-17T03:04:19.563Z,26.9
2018-08-17T03:05:09.942Z,26.9
2018-08-17T03:05:59.145Z,26.9
2018-08-17T03:06:49.206Z,26.9
2018-08-17T03:07:39.265Z,26.9
2018-08-17T03:08:29.882Z,26.9
2018-08-17T03:09:20.224Z,26.9
2018-08-17T03:10:10.028Z,26.9
2018-08-17T03:11:00.095Z,26.9
2018-08-17T03:11:50.460Z,26.9
2018-08-17T03:12:40.209Z,26.9
2018-08-17T03:13:30.347Z,26.9
2018-08-17T03:14:20.357Z,26.9
2018-08-17T03:15:10.724Z,26.9
2018-08-17T03:16:00.515Z,26.9
2018-08-17T03:16:50.310Z,26.9
2018-08-17T03:17:40.907Z,26.9
2018-08-17T03:18:30.721Z,26.9
2018-08-17T03:19:20.761Z,26.9
2018-08-17T03:20:11.098Z,26.9
2018-08-17T03:21:00.916Z,26.9
2018-08-17T03:21:50.829Z,26.9
2018-08-17T03:22:40.797Z,26.9
2018-08-17T03:23:31.348Z,26.9
2018-08-17T03:24:21.147Z,26.9
2018-08-17T03:25:26.199Z,26.9
2018-08-17T03:26:01.307Z,26.9
2018-08-17T03:26:51.302Z,26.9
2018-08-17T03:27:41.643Z,26.9
2018-08-17T03:28:31.720Z,26.9
2018-08-17T03:29:21.753Z,26.9
2018-08-17T03:30:11.289Z,26.9
2018-08-17T03:31:01.817Z,26.9
2018-08-17T03:31:51.960Z,26.9
2018-08-17T03:32:41.750Z,26.9
2018-08-17T03:33:32.070Z,26.9
2018-08-17T03:34:22.141Z,26.9
2018-08-17T03:35:11.954Z,26.9
2018-08-17T03:36:02.071Z,26.9
2018-08-17T03:36:52.366Z,26.9
2018-08-17T03:37:42.416Z,26.9
2018-08-17T03:38:31.928Z,26.9
2018-08-17T03:39:22.276Z,26.9
2018-08-17T03:40:12.331Z,26.9
2018-08-17T03:41:02.399Z,26.9
2018-08-17T03:41:52.537Z,26.9
2018-08-17T03:42:42.568Z,26.9
2018-08-17T03:43:32.887Z,26.9
2018-08-17T03:44:22.664Z,26.9
2018-08-17T03:45:12.467Z,26.9
2018-08-17T03:46:02.804Z,26.9
2018-08-17T03:46:53.166Z,26.9
2018-08-17T03:47:42.929Z,26.9
2018-08-17T03:48:33.292Z,26.9
2018-08-17T03:49:22.837Z,26.9
2018-08-17T03:50:13.415Z,26.9
2018-08-17T03:51:03.474Z,26.9
2018-08-17T03:51:53.534Z,26.9
2018-08-17T03:52:43.340Z,26.9
2018-08-17T03:53:33.411Z,26.9
2018-08-17T03:54:23.726Z,26.8
2018-08-17T03:55:13.806Z,26.9
2018-08-17T03:56:03.881Z,26.9
2018-08-17T03:56:53.938Z,26.9
2018-08-17T03:57:43.166Z,26.9
2018-08-17T03:58:33.489Z,26.9
2018-08-17T03:59:23.556Z,26.9
2018-08-17T04:00:13.907Z,26.9
2018-08-17T04:01:03.982Z,26.9
2018-08-17T04:01:54.341Z,26.9
2018-08-17T04:02:43.791Z,26.9
2018-08-17T04:03:33.871Z,26.9
2018-08-17T04:04:24.208Z,26.9
2018-08-17T04:05:14.539Z,26.9
2018-08-17T04:06:04.655Z,26.9
2018-08-17T04:06:54.138Z,26.8
2018-08-17T04:07:44.492Z,26.9
2018-08-17T04:08:34.826Z,26.9
2018-08-17T04:09:24.896Z,26.9
2018-08-17T04:10:14.673Z,26.9
2018-08-17T04:11:04.986Z,26.9
2018-08-17T04:11:54.524Z,26.8
2018-08-17T04:12:44.465Z,26.8
2018-08-17T04:13:34.945Z,26.8
2018-08-17T04:14:25.302Z,26.8
2018-08-17T04:15:15.055Z,26.9
2018-08-17T04:16:05.388Z,26.8
2018-08-17T04:16:55.438Z,26.9
2018-08-17T04:17:45.560Z,26.8
2018-08-17T04:18:35.568Z,26.8
2018-08-17T04:19:25.364Z,26.8
2018-08-17T04:20:15.748Z,26.9
2018-08-17T04:21:05.792Z,26.9
2018-08-17T04:21:55.891Z,26.8
2018-08-17T04:22:45.633Z,26.9
2018-08-17T04:23:36.023Z,26.9
2018-08-17T04:24:25.813Z,26.8
2018-08-17T04:25:16.143Z,26.8
2018-08-17T04:26:06.192Z,26.8
2018-08-17T04:26:55.983Z,26.8
2018-08-17T04:27:45.755Z,26.8
2018-08-17T04:28:36.403Z,26.8
2018-08-17T04:29:26.433Z,26.9
2018-08-17T04:30:16.542Z,26.8
2018-08-17T04:31:06.570Z,26.8
2018-08-17T04:31:56.083Z,26.8
2018-08-17T04:32:46.687Z,26.8
2018-08-17T04:33:36.755Z,26.8
2018-08-17T04:34:25.999Z,26.8
2018-08-17T04:35:16.504Z,26.8
2018-08-17T04:36:06.980Z,26.8
2018-08-17T04:36:56.458Z,26.8
2018-08-17T04:37:46.806Z,26.8
2018-08-17T04:38:37.121Z,26.8
2018-08-17T04:39:27.234Z,26.8
2018-08-17T04:40:17.249Z,26.8
2018-08-17T04:41:06.867Z,26.8
2018-08-17T04:41:57.376Z,26.8
2018-08-17T04:42:46.983Z,26.8
2018-08-17T04:43:36.946Z,26.8
2018-08-17T04:44:26.835Z,26.8
2018-08-17T04:45:16.682Z,26.8
2018-08-17T04:46:06.941Z,26.8
2018-08-17T04:46:57.473Z,26.8
2018-08-17T04:47:47.552Z,26.8
2018-08-17T04:48:37.893Z,26.8
2018-08-17T05:07:07.221Z,26.8
2018-08-17T05:07:49.849Z,26.8
2018-08-17T05:08:54.318Z,26.8
2018-08-17T05:09:28.890Z,26.8
2018-08-17T05:10:19.125Z,26.8
2018-08-17T05:11:08.348Z,26.8
2018-08-17T05:11:58.962Z,26.8
2018-08-17T05:12:49.310Z,26.8
2018-08-17T05:13:39.384Z,26.8
2018-08-17T05:14:28.927Z,26.8
2018-08-17T05:15:19.571Z,26.8
2018-08-17T05:16:09.566Z,26.8
2018-08-17T05:16:59.679Z,26.8
2018-08-17T05:17:49.741Z,26.8
2018-08-17T05:18:39.796Z,26.8
2018-08-17T05:19:28.785Z,26.8
2018-08-17T05:20:19.447Z,26.8
2018-08-17T05:21:09.538Z,26.8
2018-08-17T05:21:59.817Z,26.8
2018-08-17T05:22:50.167Z,26.8
2018-08-17T05:23:39.905Z,26.8
2018-08-17T05:24:30.257Z,26.8
2018-08-17T05:25:19.559Z,26.8
2018-08-17T05:26:09.616Z,26.8
2018-08-17T05:27:00.428Z,26.8
2018-08-17T05:27:50.287Z,26.8
2018-08-17T05:28:40.294Z,26.8
2018-08-17T05:29:30.359Z,26.8
2018-08-17T05:30:19.929Z,26.8
2018-08-17T05:31:09.734Z,26.8
2018-08-17T05:32:00.832Z,26.8
2018-08-17T05:32:50.668Z,26.8
2018-08-17T05:33:40.962Z,26.8
2018-08-17T05:34:30.206Z,26.8
2018-08-17T05:35:21.048Z,26.8
2018-08-17T05:36:11.107Z,26.8
2018-08-17T05:37:00.212Z,26.8
2018-08-17T05:37:51.227Z,26.8
2018-08-17T05:38:41.292Z,26.8
2018-08-17T05:39:30.825Z,26.8
2018-08-17T05:40:20.893Z,26.8
2018-08-17T05:41:11.490Z,26.8
2018-08-17T05:42:01.298Z,26.8
2018-08-17T05:42:51.418Z,26.8
2018-08-17T05:43:41.684Z,26.8
2018-08-17T05:44:31.747Z,26.7
2018-08-17T05:45:21.541Z,26.8
2018-08-17T05:46:11.880Z,26.8
2018-08-17T05:47:01.671Z,26.8
2018-08-17T05:47:52.016Z,26.7
2018-08-17T05:48:41.242Z,26.8
2018-08-17T05:49:32.173Z,26.7
2018-08-17T05:50:21.668Z,26.7
2018-08-17T05:51:12.283Z,26.8
2018-08-17T05:52:02.074Z,26.8
2018-08-17T05:52:52.215Z,26.7
2018-08-17T05:53:42.500Z,26.8
2018-08-17T05:54:32.074Z,26.8
2018-08-17T05:55:22.346Z,26.8
2018-08-17T05:56:12.393Z,26.8
2018-08-17T05:57:02.775Z,26.8
2018-08-17T05:57:52.805Z,26.8
2018-08-17T05:58:41.838Z,26.8
2018-08-17T05:59:32.680Z,26.7
2018-08-17T06:00:22.739Z,26.8
2018-08-17T06:01:12.522Z,26.7
2018-08-17T06:02:02.882Z,26.7
2018-08-17T06:02:54.058Z,26.7
2018-08-17T06:03:42.704Z,26.7
2018-08-17T06:04:33.044Z,26.8
2018-08-17T06:05:23.185Z,26.7
2018-08-17T06:06:13.470Z,26.7
2018-08-17T06:07:03.265Z,26.8
2018-08-17T06:07:53.370Z,26.8
2018-08-17T06:08:43.386Z,26.8
2018-08-17T06:09:33.435Z,26.8
2018-08-17T06:10:23.769Z,26.8
2018-08-17T06:11:16.008Z,26.8
2018-08-17T06:12:03.612Z,26.8
2018-08-17T06:12:53.650Z,26.8
2018-08-17T06:13:44.031Z,26.8
2018-08-17T06:14:34.113Z,26.8
2018-08-17T06:15:24.127Z,26.8
2018-08-17T06:16:13.713Z,26.8
2018-08-17T06:17:03.991Z,26.8
2018-08-17T06:17:54.321Z,26.8
2018-08-17T06:18:44.103Z,26.8
2018-08-17T06:19:34.171Z,26.8
2018-08-17T06:20:24.515Z,26.8
2018-08-17T06:21:14.602Z,26.8
2018-08-17T06:22:04.643Z,26.8
2018-08-17T06:22:54.692Z,26.8
2018-08-17T06:23:44.215Z,26.8
2018-08-17T06:24:34.861Z,26.8
2018-08-17T06:25:24.921Z,26.8
2018-08-17T06:26:14.995Z,26.8
2018-08-17T06:27:04.760Z,26.8
2018-08-17T06:27:55.108Z,26.8
2018-08-17T06:28:45.191Z,26.8
2018-08-17T06:29:34.723Z,26.8
2018-08-17T06:30:24.776Z,26.8
2018-08-17T06:31:15.120Z,26.8
2018-08-17T06:32:05.164Z,26.8
2018-08-17T06:32:55.501Z,26.8
2018-08-17T06:33:45.297Z,26.8
2018-08-17T06:34:35.381Z,26.8
2018-08-17T06:35:25.159Z,26.8
2018-08-17T06:36:15.712Z,26.8
2018-08-17T06:37:05.252Z,26.8
2018-08-17T06:37:55.916Z,26.8
2018-08-17T06:38:45.435Z,26.8
2018-08-17T06:39:36.145Z,26.8
2018-08-17T06:40:26.156Z,26.8
2018-08-17T06:41:16.185Z,26.8
2018-08-17T06:42:06.054Z,26.8
2018-08-17T06:42:56.283Z,26.8
2018-08-17T06:43:46.107Z,26.8
2018-08-17T06:44:36.423Z,26.8
2018-08-17T06:45:26.480Z,26.8
2018-08-17T06:46:16.503Z,26.8
2018-08-17T06:47:06.305Z,26.8
2018-08-17T06:47:56.382Z,26.8
2018-08-17T06:48:46.424Z,26.8
2018-08-17T06:49:36.794Z,26.8
2018-08-17T06:50:26.550Z,26.8
2018-08-17T06:51:16.562Z,26.8
2018-08-17T06:52:06.999Z,26.8
2018-08-17T06:52:57.060Z,26.8
2018-08-17T06:53:47.111Z,26.8
2018-08-17T06:54:37.171Z,26.8
2018-08-17T06:55:26.720Z,26.8
2018-08-17T06:56:17.293Z,26.8
2018-08-17T06:57:07.643Z,26.8
2018-08-17T06:57:57.140Z,26.8
2018-08-17T06:58:47.227Z,26.8
2018-08-17T06:59:37.608Z,26.8
2018-08-17T07:00:27.435Z,26.8
2018-08-17T07:01:17.475Z,26.8
2018-08-17T07:02:07.486Z,26.7
2018-08-17T07:02:57.859Z,26.8
2018-08-17T07:03:47.355Z,26.8
2018-08-17T07:04:37.712Z,26.7
2018-08-17T07:05:27.472Z,26.7
2018-08-17T07:06:17.529Z,26.8
2018-08-17T07:07:07.601Z,26.8
2018-08-17T07:07:58.203Z,26.8
2018-08-17T07:08:49.680Z,26.8
2018-08-17T07:09:39.093Z,26.8
2018-08-17T07:10:27.853Z,26.8
2018-08-17T07:11:18.486Z,26.8
2018-08-17T07:12:08.528Z,26.8
2018-08-17T07:12:58.613Z,26.8
2018-08-17T07:13:48.442Z,26.8
2018-08-17T07:14:38.200Z,26.8
2018-08-17T07:15:28.527Z,26.8
2018-08-17T07:16:18.616Z,26.8
2018-08-17T07:17:08.946Z,26.8
2018-08-17T07:17:58.744Z,26.7
2018-08-17T07:18:49.074Z,26.7
2018-08-17T07:19:39.118Z,26.7
2018-08-17T07:20:28.931Z,26.8
2018-08-17T07:21:19.253Z,26.7
2018-08-17T07:22:09.313Z,26.7
2018-08-17T07:22:59.111Z,26.7
2018-08-17T07:23:49.406Z,26.7
2018-08-17T07:24:39.231Z,26.8
2018-08-17T07:25:29.620Z,26.7
2018-08-17T07:26:19.335Z,26.7
2018-08-17T07:27:09.667Z,26.7
2018-08-17T07:28:00.397Z,26.7
2018-08-17T07:28:49.520Z,26.7
2018-08-17T07:29:39.880Z,26.7
2018-08-17T07:30:29.411Z,26.7
2018-08-17T07:31:19.742Z,26.7
2018-08-17T07:32:10.061Z,26.7
2018-08-17T07:32:59.992Z,26.7
2018-08-17T07:33:50.243Z,26.7
2018-08-17T07:34:40.268Z,26.7
2018-08-17T07:35:29.979Z,26.7
2018-08-17T07:36:20.143Z,26.7
2018-08-17T07:37:09.941Z,26.7
2018-08-17T07:38:00.240Z,26.7
2018-08-17T07:38:50.300Z,26.7
2018-08-17T07:39:40.689Z,26.7
2018-08-17T07:40:30.739Z,26.7
2018-08-17T07:41:20.817Z,26.7
2018-08-17T07:42:10.903Z,26.8
2018-08-17T07:43:00.927Z,28.6
2018-08-17T07:43:50.759Z,47.2
2018-08-17T07:44:41.073Z,56.2
2018-08-17T07:45:31.145Z,56.9
2018-08-17T07:46:21.202Z,52.8
2018-08-17T07:47:11.547Z,50.6
2018-08-17T07:48:02.127Z,50
2018-08-17T07:48:51.107Z,49.6
2018-08-17T07:49:41.205Z,49.4
2018-08-17T07:50:31.266Z,49.8
2018-08-17T07:51:21.615Z,49.9
2018-08-17T07:52:11.707Z,50.1
2018-08-17T07:53:01.431Z,50.1
2018-08-17T07:53:51.776Z,49.9
2018-08-17T07:54:41.862Z,49.8
2018-08-17T07:55:31.933Z,48.4
2018-08-17T07:56:21.674Z,44.4
2018-08-17T07:57:11.747Z,54
2018-08-17T07:58:02.094Z,59.3
2018-08-17T07:58:52.054Z,60.1
2018-08-17T07:59:42.204Z,59.6
2018-08-17T08:00:31.994Z,57.4
2018-08-17T08:01:22.057Z,55
2018-08-17T08:02:12.414Z,53.6
2018-08-17T08:03:02.170Z,54.3
2018-08-17T08:03:52.242Z,55.9
2018-08-17T08:04:42.584Z,57.4
2018-08-17T08:05:32.722Z,58.3
2018-08-17T08:06:22.716Z,58.4
2018-08-17T08:07:12.798Z,58.1
2018-08-17T08:08:02.836Z,57.6
2018-08-17T08:08:52.899Z,57.3
2018-08-17T08:09:42.966Z,57.6
2018-08-17T08:10:33.790Z,58.1
2018-08-17T08:12:13.160Z,58.9
2018-08-17T08:13:02.491Z,59.1
2018-08-17T08:13:53.295Z,59.1
2018-08-17T08:14:43.407Z,59
2018-08-17T08:15:33.175Z,59.1
2018-08-17T08:16:22.995Z,59.1
2018-08-17T08:17:13.596Z,59.4
2018-08-17T08:18:03.671Z,59.6
2018-08-17T08:18:53.745Z,59.8
2018-08-17T08:19:43.211Z,59.9
2018-08-17T08:20:34.337Z,60
2018-08-17T08:21:23.646Z,60.1
2018-08-17T08:22:13.709Z,60.2
2018-08-17T08:23:03.765Z,60.4
2018-08-17T08:23:53.926Z,60.4
2018-08-17T08:24:44.168Z,60.6
2018-08-17T08:25:33.962Z,60.8
2018-08-17T08:26:24.321Z,60.9
2018-08-17T08:27:13.814Z,61.1
2018-08-17T08:28:04.459Z,61.2
2018-08-17T08:28:54.281Z,61.3
2018-08-17T08:29:44.033Z,61.4
2018-08-17T08:30:34.637Z,61.5
2018-08-17T08:31:24.159Z,61.6
2018-08-17T08:32:14.822Z,61.8
2018-08-17T08:33:04.551Z,61.9
2018-08-17T08:33:54.592Z,61.9
2018-08-17T08:34:44.942Z,62
2018-08-17T08:35:34.981Z,62.1
2018-08-17T08:36:25.070Z,62.2
2018-08-17T08:37:14.575Z,62.3
2018-08-17T08:38:04.899Z,62.3
2018-08-17T08:38:54.996Z,62.4
2018-08-17T08:39:44.927Z,62.5
2018-08-17T08:40:35.394Z,62.6
2018-08-17T08:41:24.966Z,62.8
2018-08-17T08:42:15.606Z,62.9
2018-08-17T08:43:05.581Z,62.9
2018-08-17T08:43:55.647Z,63.1
2018-08-17T08:44:45.710Z,63.1
2018-08-17T08:45:36.587Z,63.2
2018-08-17T08:46:25.315Z,63.3
2018-08-17T08:47:15.617Z,63.4
2018-08-17T08:48:05.998Z,63.4
2018-08-17T08:48:56.026Z,63.6
2018-08-17T08:49:46.101Z,63.6
2018-08-17T08:50:35.975Z,63.8
2018-08-17T08:51:26.272Z,63.8
2018-08-17T08:52:16.342Z,63.9
2018-08-17T08:53:06.413Z,64
2018-08-17T08:53:56.485Z,64.1
2018-08-17T08:54:46.260Z,64.1
2018-08-17T08:55:36.614Z,64.2
2018-08-17T08:56:26.462Z,64.3
2018-08-17T08:57:16.737Z,64.3
2018-08-17T08:58:06.499Z,64.4
2018-08-17T08:58:56.366Z,64.5
2018-08-17T08:59:46.937Z,64.6
2018-08-17T09:00:37.002Z,64.7
2018-08-17T09:01:27.048Z,64.8
2018-08-17T09:02:16.627Z,64.9
2018-08-17T09:03:07.179Z,65
2018-08-17T09:03:56.981Z,65.1
2018-08-17T09:04:47.386Z,65.3
2018-08-17T09:21:14.321Z,67.1
2018-08-17T09:22:02.968Z,67.2
2018-08-17T09:22:52.507Z,67.3
2018-08-17T09:23:43.330Z,67.4
2018-08-17T09:24:33.410Z,67.4
2018-08-17T09:25:23.188Z,67.4
2018-08-17T09:26:13.526Z,67.5
2018-08-17T09:27:03.605Z,67.6
2018-08-17T09:27:53.722Z,67.6
2018-08-17T09:28:43.424Z,67.8
2018-08-17T09:29:33.819Z,67.8
2018-08-17T09:30:23.910Z,67.9
2018-08-17T09:31:13.977Z,68
2018-08-17T09:32:03.737Z,68.1
2018-08-17T09:32:53.882Z,68.2
2018-08-17T09:33:43.863Z,68.3
2018-08-17T09:34:34.265Z,68.3
2018-08-17T09:35:24.299Z,68.4
2018-08-17T09:36:14.485Z,68.5
2018-08-17T09:37:04.469Z,68.5
2018-08-17T09:37:54.494Z,68.6
2018-08-17T09:38:44.290Z,68.5
2018-08-17T09:39:34.055Z,68.6
2018-08-17T09:40:24.687Z,68.6
2018-08-17T09:41:13.710Z,68.6
2018-08-17T09:42:04.193Z,68.8
2018-08-17T09:42:54.583Z,68.8
2018-08-17T09:43:44.120Z,68.9
2018-08-17T09:44:34.430Z,69
2018-08-17T09:45:24.791Z,69.1
2018-08-17T09:46:15.137Z,69.1
2018-08-17T09:47:05.193Z,69.2
2018-08-17T09:47:54.712Z,69.3
2018-08-17T09:48:44.735Z,69.3
2018-08-17T09:49:35.361Z,69.3
2018-08-17T09:50:25.412Z,69.3
2018-08-17T09:51:15.099Z,69.3
2018-08-17T09:52:05.009Z,69.4
2018-08-17T09:52:55.665Z,69.4
2018-08-17T09:53:45.150Z,69.4
2018-08-17T09:54:35.785Z,69.4
2018-08-17T09:55:25.546Z,69.4
2018-08-17T09:56:15.318Z,69.4
2018-08-17T09:57:05.666Z,69.4
2018-08-17T09:57:56.063Z,69.5
2018-08-17T09:58:46.091Z,69.6
2018-08-17T09:59:35.865Z,69.6
2018-08-17T10:00:25.915Z,69.7
2018-08-17T10:01:16.022Z,69.5
2018-08-17T10:02:06.330Z,69.4
2018-08-17T10:02:56.493Z,69.4
2018-08-17T10:03:46.232Z,69.5
2018-08-17T10:04:36.608Z,69.7
2018-08-17T10:05:26.038Z,69.9
2018-08-17T10:06:16.420Z,70.1
2018-08-17T10:07:06.195Z,70.2
2018-08-17T10:07:56.565Z,70.2
2018-08-17T10:08:46.614Z,69.3
2018-08-17T10:09:36.969Z,67.5
2018-08-17T10:10:26.823Z,65.6
2018-08-17T10:11:17.128Z,64.2
2018-08-17T10:12:06.614Z,63.3
2018-08-17T10:12:57.023Z,63
2018-08-17T10:13:47.323Z,63.9
2018-08-17T10:14:36.803Z,65.6
2018-08-17T10:15:26.847Z,67
2018-08-17T10:16:17.497Z,67.9
2018-08-17T10:17:07.277Z,68.1
2018-08-17T10:17:57.440Z,68
2018-08-17T10:18:47.455Z,67.8
2018-08-17T10:19:37.192Z,67.9
2018-08-17T10:20:27.540Z,68.2
2018-08-17T10:21:20.290Z,67.9
2018-08-17T10:22:10.221Z,66.2
2018-08-17T10:22:57.755Z,64.8
2018-08-17T10:23:48.054Z,63.5
2018-08-17T10:24:37.591Z,62.6
2018-08-17T10:25:27.924Z,62
2018-08-17T10:26:17.964Z,61.6
2018-08-17T10:27:08.065Z,61.1
2018-08-17T10:27:58.379Z,60.6
2018-08-17T10:28:47.428Z,59.9
2018-08-17T10:29:38.227Z,59.3
2018-08-17T10:30:28.615Z,58.6
2018-08-17T10:31:18.396Z,58
2018-08-17T10:32:08.444Z,57.3
2018-08-17T10:32:58.551Z,56.6
2018-08-17T10:33:48.681Z,55.9
2018-08-17T10:34:38.641Z,55.3
2018-08-17T10:35:28.737Z,54.6
2018-08-17T10:36:19.050Z,53.9
2018-08-17T10:37:09.108Z,53.3
2018-08-17T10:37:58.675Z,52.9
2018-08-17T10:38:48.978Z,52.6
2018-08-17T10:39:38.776Z,52.3
2018-08-17T10:40:28.795Z,52.1
2018-08-17T10:41:19.451Z,51.8
2018-08-17T10:42:09.289Z,51.5
2018-08-17T10:42:59.598Z,51.2
2018-08-17T10:43:49.392Z,50.8
2018-08-17T10:44:39.255Z,50.5
2018-08-17T10:45:29.829Z,50.1
2018-08-17T10:46:19.869Z,49.8
2018-08-17T10:47:09.626Z,49.4
2018-08-17T10:47:59.697Z,49.1
2018-08-17T10:48:50.676Z,48.8
2018-08-17T10:49:39.074Z,48.4
2018-08-17T10:50:29.960Z,48.1
2018-08-17T10:51:19.977Z,47.7
2018-08-17T10:52:10.299Z,47.3
2018-08-17T10:52:59.819Z,47
2018-08-17T10:53:50.422Z,46.7
2018-08-17T10:54:40.260Z,46.3
2018-08-17T10:55:30.804Z,45.9
2018-08-17T10:56:20.741Z,45.5
2018-08-17T10:57:10.685Z,45.1
2018-08-17T10:58:00.764Z,44.8
2018-08-17T10:58:50.550Z,44.5
2018-08-17T10:59:40.859Z,44.3
2018-08-17T11:00:30.939Z,43.9
2018-08-17T11:01:20.992Z,43.7
2018-08-17T11:02:11.053Z,43.5
2018-08-17T11:03:01.174Z,43.3
2018-08-17T11:03:50.954Z,43
2018-08-17T11:04:41.256Z,42.8
2018-08-17T11:05:30.770Z,42.6
2018-08-17T11:06:21.396Z,42.4
2018-08-17T11:07:10.866Z,42.3
2018-08-17T11:08:01.506Z,42.1
2018-08-17T11:08:51.568Z,41.9
2018-08-17T11:09:41.093Z,41.6
2018-08-17T11:10:31.415Z,41.4
2018-08-17T11:11:21.603Z,41.1
2018-08-17T11:12:11.576Z,40.9
2018-08-17T11:13:01.613Z,40.7
2018-08-17T11:13:52.013Z,40.5
2018-08-17T11:14:41.222Z,40.3
2018-08-17T11:15:31.945Z,40.3
2018-08-17T11:16:22.155Z,40.1
2018-08-17T11:17:12.123Z,39.9
2018-08-17T11:18:02.373Z,39.8
2018-08-17T11:18:52.405Z,39.7
2018-08-17T11:19:42.169Z,39.6
2018-08-17T11:20:32.303Z,39.4
2018-08-17T11:21:22.339Z,39.3
2018-08-17T11:22:12.376Z,39.1
2018-08-17T11:23:02.610Z,39
2018-08-17T11:23:52.522Z,38.9
2018-08-17T11:24:42.852Z,38.8
2018-08-17T11:25:32.917Z,38.6
2018-08-17T11:26:22.735Z,38.5
2018-08-17T11:27:13.070Z,38.4
2018-08-17T11:28:02.576Z,38.3
2018-08-17T11:28:52.879Z,38.1
2018-08-17T11:29:43.239Z,37.9
2018-08-17T11:30:33.362Z,37.7
2018-08-17T11:31:22.809Z,37.6
2018-08-17T11:32:13.491Z,37.4
2018-08-17T11:33:02.959Z,37.3
2018-08-17T11:33:53.046Z,37.2
2018-08-17T11:34:43.650Z,37.1
2018-08-17T11:35:33.690Z,37.1
2018-08-17T11:36:23.731Z,36.9
2018-08-17T11:37:13.817Z,36.8
2018-08-17T11:38:03.917Z,36.8
2018-08-17T11:38:53.426Z,36.6
2018-08-17T11:39:43.206Z,36.6
2018-08-17T11:40:33.539Z,36.4
2018-08-17T11:41:23.545Z,36.3
2018-08-17T11:42:13.439Z,36.2
2018-08-17T11:43:03.466Z,36.1
2018-08-17T11:43:53.814Z,36
2018-08-17T11:44:43.970Z,35.9
2018-08-17T11:45:34.241Z,35.8
2018-08-17T11:46:23.760Z,35.7
2018-08-17T11:47:14.365Z,35.6
2018-08-17T11:48:04.225Z,35.4
2018-08-17T11:48:53.705Z,35.4
2018-08-17T11:49:44.307Z,35.3
2018-08-17T11:50:34.864Z,35.3
2018-08-17T11:51:24.924Z,35.2
2018-08-17T11:52:14.736Z,35.1
2018-08-17T11:53:04.530Z,35
2018-08-17T11:53:55.649Z,34.9
2018-08-17T11:54:44.973Z,34.8
2018-08-17T11:55:35.003Z,34.8
2018-08-17T11:56:25.074Z,34.6
2018-08-17T11:57:15.151Z,34.5
2018-08-17T11:58:04.912Z,34.4
2018-08-17T11:58:55.522Z,34.3
2018-08-17T11:59:45.353Z,34.3
2018-08-17T12:00:35.696Z,34.2
2018-08-17T12:01:25.185Z,34.2
2018-08-17T12:02:15.524Z,34.1
2018-08-17T12:03:05.888Z,34.1
2018-08-17T12:03:55.390Z,34
2018-08-17T12:04:46.001Z,33.9
2018-08-17T12:05:35.804Z,33.8
2018-08-17T12:06:25.890Z,33.8
2018-08-17T12:07:16.226Z,33.7
2018-08-17T12:08:06.743Z,33.6
2018-08-17T12:08:56.367Z,33.5
2018-08-17T12:09:46.391Z,33.4
2018-08-17T12:10:36.167Z,33.4
2018-08-17T12:11:26.230Z,33.4
2018-08-17T12:12:16.532Z,33.3
2018-08-17T12:13:06.340Z,33.3
2018-08-17T12:13:56.429Z,33.2
2018-08-17T12:14:46.761Z,33.1
2018-08-17T12:15:36.246Z,33.1
2018-08-17T12:16:26.613Z,33
2018-08-17T12:17:16.931Z,32.9
2018-08-17T12:18:07.003Z,32.9
2018-08-17T12:18:56.981Z,32.8
2018-08-17T12:19:47.121Z,32.8
2018-08-17T12:20:37.194Z,32.8